createdAt,value
2018-06-03T00:01:49.107Z,68.22
2018-06-03T00:04:16.723Z,68.24
2018-06-03T00:06:44.300Z,68.27
2018-06-03T00:09:11.871Z,68.32
2018-06-03T00:21:00.424Z,68.56
2018-06-03T00:23:28.031Z,68.67
2018-06-03T00:25:55.651Z,68.82
2018-06-03T00:37:32.341Z,69.11
2018-06-03T00:39:59.915Z,69.18
2018-06-03T00:42:27.551Z,69.16
2018-06-03T00:54:03.878Z,69.44
2018-06-03T00:56:43.124Z,69.50
2018-06-03T00:59:10.799Z,69.50
2018-06-03T01:10:45.701Z,69.75
2018-06-03T01:13:13.326Z,69.78
2018-06-03T01:15:40.864Z,69.87
2018-06-03T01:27:17.111Z,70.11
2018-06-03T01:29:44.656Z,70.13
2018-06-03T01:32:12.218Z,70.12
2018-06-03T01:34:39.896Z,70.17
2018-06-03T01:46:16.398Z,70.48
2018-06-03T01:48:43.959Z,70.52
2018-06-03T01:51:11.563Z,70.57
2018-06-03T02:02:48.788Z,70.80
2018-06-03T02:05:16.327Z,70.87
2018-06-03T02:07:43.867Z,70.93
2018-06-03T02:19:20.103Z,71.37
2018-06-03T02:21:47.651Z,71.41
2018-06-03T02:24:15.202Z,71.53
2018-06-03T02:35:51.287Z,71.56
2018-06-03T02:38:18.901Z,71.57
2018-06-03T02:40:46.521Z,71.60
2018-06-03T02:52:12.675Z,71.74
2018-06-03T02:54:40.213Z,71.80
2018-06-03T02:57:07.773Z,71.85
2018-06-03T02:59:35.335Z,71.89
2018-06-03T03:11:12.953Z,72.08
2018-06-03T03:13:40.532Z,72.16
2018-06-03T03:16:08.095Z,72.20
2018-06-03T03:27:44.767Z,72.20
2018-06-03T03:30:12.340Z,72.23
2018-06-03T03:32:39.975Z,72.36
2018-06-03T03:44:16.239Z,72.66
2018-06-03T03:46:43.861Z,72.72
2018-06-03T03:49:11.421Z,72.72
2018-06-03T04:00:30.835Z,72.88
2018-06-03T04:02:58.359Z,72.91
2018-06-03T04:05:26.071Z,72.96
2018-06-03T04:07:53.671Z,72.98
2018-06-03T04:19:30.370Z,73.17
2018-06-03T04:21:57.926Z,73.26
2018-06-03T04:24:25.643Z,73.29
2018-06-03T04:35:43.021Z,73.59
2018-06-03T04:38:10.781Z,73.62
2018-06-03T04:40:38.379Z,73.62
2018-06-03T04:52:04.178Z,73.84
2018-06-03T04:54:31.744Z,73.85
2018-06-03T04:56:59.338Z,73.89
2018-06-03T04:59:31.527Z,73.97
2018-06-03T05:11:11.628Z,74.04
2018-06-03T05:13:39.373Z,74.05
2018-06-03T05:16:07.009Z,74.05
2018-06-03T05:27:43.067Z,74.11
2018-06-03T05:30:10.645Z,74.25
2018-06-03T05:32:38.291Z,74.41
2018-06-03T05:44:15.005Z,74.80
2018-06-03T05:46:42.645Z,74.89
2018-06-03T05:49:10.257Z,74.92
2018-06-03T06:00:46.787Z,74.99
2018-06-03T06:03:14.332Z,74.97
2018-06-03T06:05:42.025Z,75.00
2018-06-03T06:19:43.815Z,75.24
2018-06-03T06:22:11.455Z,75.27
2018-06-03T06:24:39.033Z,75.27
2018-06-03T06:36:15.337Z,75.32
2018-06-03T06:38:42.901Z,75.33
2018-06-03T06:41:10.461Z,75.33
2018-06-03T06:52:49.339Z,75.47
2018-06-03T06:55:16.933Z,75.53
2018-06-03T06:57:44.544Z,75.61
2018-06-03T07:08:50.587Z,75.97
2018-06-03T07:11:18.116Z,76.03
2018-06-03T07:13:47.504Z,76.02
2018-06-03T07:16:15.099Z,76.06
2018-06-03T07:27:20.123Z,76.10
2018-06-03T07:29:47.799Z,76.09
2018-06-03T07:32:15.341Z,76.08
2018-06-03T07:43:45.429Z,76.05
2018-06-03T07:46:12.975Z,76.05
2018-06-03T07:49:31.656Z,76.94
2018-06-03T08:01:09.004Z,76.36
2018-06-03T08:03:38.059Z,75.94
2018-06-03T08:06:07.262Z,75.79
2018-06-03T08:17:45.325Z,76.19
2018-06-03T08:20:14.355Z,76.20
2018-06-03T08:22:43.544Z,75.99
2018-06-03T08:34:14.627Z,75.45
2018-06-03T08:36:43.609Z,75.03
2018-06-03T08:39:12.659Z,74.73
2018-06-03T08:41:41.683Z,74.75
2018-06-03T08:53:01.139Z,73.61
2018-06-03T08:55:30.141Z,73.52
2018-06-03T08:57:59.229Z,72.97
2018-06-03T09:09:26.093Z,71.53
2018-06-03T09:11:56.471Z,71.28
2018-06-03T09:14:25.639Z,71.11
2018-06-03T09:27:27.814Z,69.78
2018-06-03T09:29:56.876Z,69.54
2018-06-03T09:32:26.259Z,69.15
2018-06-03T09:43:27.121Z,67.85
2018-06-03T09:46:06.278Z,67.60
2018-06-03T09:48:35.388Z,67.28
2018-06-03T10:00:02.792Z,66.12
2018-06-03T10:02:50.647Z,65.87
2018-06-03T10:05:19.623Z,65.55
2018-06-03T10:07:49.096Z,65.20
2018-06-03T10:19:26.336Z,64.63
2018-06-03T10:21:55.460Z,64.16
2018-06-03T10:24:24.726Z,62.74
2018-06-03T10:33:22.512Z,62.10
2018-06-03T10:35:52.660Z,62.12
2018-06-03T10:38:21.699Z,61.08
2018-06-03T10:40:50.806Z,61.51
2018-06-03T10:52:28.637Z,60.15
2018-06-03T10:54:57.567Z,59.38
2018-06-03T10:57:27.256Z,59.45
2018-06-03T11:10:28.837Z,58.77
2018-06-03T11:12:57.991Z,58.81
2018-06-03T11:15:27.086Z,57.91
2018-06-03T11:27:32.176Z,58.24
2018-06-03T11:30:01.611Z,57.66
2018-06-03T11:32:31.016Z,57.47
2018-06-03T11:35:24.209Z,56.49
2018-06-03T11:41:03.553Z,55.12
2018-06-03T11:43:56.318Z,54.26
2018-06-03T11:46:25.337Z,53.67
2018-06-03T11:48:54.455Z,53.48
2018-06-03T11:51:23.948Z,53.18
2018-06-03T11:54:03.133Z,53.52
2018-06-03T11:56:44.808Z,53.08
2018-06-03T11:59:24.437Z,52.64
2018-06-03T12:01:53.346Z,52.69
2018-06-03T12:04:22.146Z,52.31
2018-06-03T12:06:51.008Z,52.16
2018-06-03T12:09:20.407Z,51.34
2018-06-03T12:11:54.725Z,51.46
2018-06-03T12:14:31.615Z,51.06
2018-06-03T12:17:07.511Z,50.31
2018-06-03T12:19:36.571Z,49.41
2018-06-03T12:22:05.487Z,49.68
2018-06-03T12:24:34.407Z,49.39
2018-06-03T12:27:03.516Z,49.32
2018-06-03T12:29:35.491Z,49.83
2018-06-03T12:32:08.173Z,50.01
2018-06-03T12:34:40.048Z,50.21
2018-06-03T12:37:08.935Z,49.52
2018-06-03T12:39:37.644Z,49.30
2018-06-03T12:42:06.467Z,48.67
2018-06-03T12:44:35.751Z,49.31
2018-06-03T12:47:10.990Z,49.48
2018-06-03T12:49:42.841Z,49.57
2018-06-03T12:54:56.957Z,50.34
2018-06-03T12:57:25.854Z,49.79
2018-06-03T12:59:54.853Z,50.41
2018-06-03T13:02:27.616Z,49.79
2018-06-03T13:05:04.643Z,50.19
2018-06-03T13:07:40.495Z,49.98
2018-06-03T13:10:11.816Z,51.06
2018-06-03T13:12:40.699Z,50.32
2018-06-03T13:15:09.598Z,50.40
2018-06-03T13:18:33.955Z,50.32
2018-06-03T13:30:13.221Z,49.97
2018-06-03T13:32:42.113Z,50.06
2018-06-03T13:35:11.441Z,49.98
2018-06-03T13:39:00.257Z,50.95
2018-06-03T13:44:22.919Z,49.17
2018-06-03T13:47:04.963Z,48.97
2018-06-03T13:49:40.844Z,49.21
2018-06-03T13:52:09.701Z,49.57
2018-06-03T13:54:38.630Z,50.02
2018-06-03T14:02:47.883Z,48.86
2018-06-03T14:05:24.212Z,48.58
2018-06-03T14:07:53.129Z,47.82
2018-06-03T14:10:22.196Z,47.86
2018-06-03T14:12:51.462Z,46.99
2018-06-03T14:21:11.655Z,45.34
2018-06-03T14:23:40.754Z,44.87
2018-06-03T14:43:27.385Z,42.83
2018-06-03T14:45:56.718Z,43.08
2018-06-03T14:57:29.412Z,42.69
2018-06-03T15:01:40.368Z,42.38
2018-06-03T15:04:09.565Z,42.43
2018-06-03T15:17:06.146Z,41.56
2018-06-03T15:19:35.569Z,41.45
2018-06-03T15:22:04.815Z,40.66
2018-06-03T15:24:43.941Z,40.16
2018-06-03T15:27:18.914Z,39.53
2018-06-03T15:29:52.307Z,39.38
2018-06-03T15:38:47.384Z,38.15
2018-06-03T15:41:17.154Z,37.73
2018-06-03T15:43:51.859Z,37.78
2018-06-03T15:46:31.707Z,37.29
2018-06-03T15:49:08.515Z,37.79
2018-06-03T15:51:37.501Z,37.06
2018-06-03T15:54:06.903Z,36.57
2018-06-03T15:56:35.896Z,35.79
2018-06-03T15:59:07.968Z,36.22
2018-06-03T16:01:40.750Z,35.40
2018-06-03T16:04:15.823Z,35.53
2018-06-03T16:09:47.065Z,37.03
2018-06-03T16:12:15.979Z,37.08
2018-06-03T16:14:45.052Z,37.51
2018-06-03T16:17:20.772Z,37.82
2018-06-03T16:19:52.180Z,38.22
2018-06-03T16:22:24.545Z,39.28
2018-06-03T16:24:56.154Z,40.00
2018-06-03T16:27:25.029Z,40.53
2018-06-03T16:29:53.812Z,40.80
2018-06-03T16:32:22.743Z,40.98
2018-06-03T16:34:58.704Z,42.43
2018-06-03T16:37:28.741Z,42.32
2018-06-03T16:40:08.898Z,42.58
2018-06-03T16:42:41.225Z,43.28
2018-06-03T16:45:10.095Z,42.53
2018-06-03T16:47:39.093Z,42.66
2018-06-03T16:50:08.227Z,42.36
2018-06-03T16:52:44.522Z,42.74
2018-06-03T16:55:24.536Z,42.36
2018-06-03T16:57:56.389Z,43.12
2018-06-03T17:00:25.164Z,42.77
2018-06-03T17:02:53.929Z,42.56
2018-06-03T17:05:22.752Z,43.79
2018-06-03T17:07:51.884Z,43.08
2018-06-03T17:10:24.947Z,43.95
2018-06-03T17:12:55.015Z,43.71
2018-06-03T17:15:28.629Z,44.12
2018-06-03T17:17:58.568Z,44.43
2018-06-03T17:20:27.898Z,44.55
2018-06-03T17:22:59.321Z,44.90
2018-06-03T17:25:28.920Z,44.80
2018-06-03T17:28:03.928Z,44.79
2018-06-03T17:36:21.191Z,44.04
2018-06-03T17:38:50.357Z,44.75
2018-06-03T17:41:19.398Z,44.43
2018-06-03T17:48:11.348Z,45.05
2018-06-03T17:50:42.709Z,44.59
2018-06-03T17:53:12.027Z,44.06
2018-06-03T17:55:40.864Z,43.93
2018-06-03T17:58:09.967Z,43.07
2018-06-03T18:10:18.627Z,39.21
2018-06-03T18:12:47.513Z,38.16
2018-06-03T18:15:16.661Z,37.77
2018-06-03T18:26:54.920Z,35.10
2018-06-03T18:29:23.930Z,35.16
2018-06-03T18:31:53.031Z,34.49
2018-06-03T18:34:24.448Z,33.92
2018-06-03T18:45:51.989Z,35.99
2018-06-03T18:48:20.964Z,37.01
2018-06-03T18:50:50.081Z,38.10
2018-06-03T19:02:39.823Z,40.01
2018-06-03T19:05:08.707Z,40.37
2018-06-03T19:07:37.802Z,40.60
2018-06-03T19:19:23.149Z,43.36
2018-06-03T19:21:52.023Z,43.23
2018-06-03T19:24:22.219Z,43.26
2018-06-03T19:26:51.457Z,44.21
2018-06-03T19:29:24.971Z,44.97
2018-06-03T19:32:11.880Z,45.43
2018-06-03T19:34:51.318Z,45.81
2018-06-03T19:37:20.272Z,46.10
2018-06-03T19:39:49.154Z,45.80
2018-06-03T19:42:18.185Z,46.10
2018-06-03T19:44:47.545Z,46.15
2018-06-03T19:55:30.123Z,47.13
2018-06-03T19:57:58.953Z,47.58
2018-06-03T20:00:28.501Z,47.78
2018-06-03T20:03:12.008Z,47.65
2018-06-03T20:05:54.230Z,48.42
2018-06-03T20:11:26.167Z,49.07
2018-06-03T20:13:55.136Z,49.42
2018-06-03T20:16:24.135Z,49.77
2018-06-03T20:18:53.130Z,50.12
2018-06-03T20:29:49.799Z,51.26
2018-06-03T20:35:20.696Z,53.30
2018-06-03T20:47:36.114Z,55.12
2018-06-03T20:50:05.541Z,55.34
2018-06-03T20:52:34.650Z,55.55
2018-06-03T21:04:52.767Z,57.07
2018-06-03T21:07:21.735Z,56.85
2018-06-03T21:09:50.836Z,57.48
2018-06-03T21:15:35.009Z,57.60
2018-06-03T21:21:11.399Z,58.58
2018-06-03T21:23:40.496Z,58.87
2018-06-03T21:26:09.565Z,58.90
2018-06-03T21:28:38.805Z,59.61
2018-06-03T21:40:15.941Z,60.02
2018-06-03T21:42:44.916Z,60.03
2018-06-03T21:45:14.267Z,60.39
2018-06-03T21:56:50.809Z,60.88
2018-06-03T21:59:19.954Z,60.93
2018-06-03T22:01:49.213Z,61.04
2018-06-03T22:13:28.206Z,61.28
2018-06-03T22:15:57.656Z,61.74
2018-06-03T22:18:26.923Z,62.01
2018-06-03T22:30:04.429Z,62.17
2018-06-03T22:32:33.608Z,62.11
2018-06-03T22:35:02.605Z,62.07
2018-06-03T22:46:40.145Z,62.96
2018-06-03T22:49:09.372Z,62.85
2018-06-03T22:51:38.479Z,62.69
2018-06-03T22:54:08.668Z,63.14
2018-06-03T23:05:46.069Z,62.75
2018-06-03T23:08:15.094Z,63.06
2018-06-03T23:10:44.252Z,63.24
2018-06-03T23:22:22.320Z,63.83
2018-06-03T23:24:51.219Z,63.91
2018-06-03T23:27:20.212Z,64.20
2018-06-03T23:38:57.392Z,64.67
2018-06-03T23:41:26.572Z,64.72
2018-06-03T23:43:55.632Z,64.85
2018-06-03T23:55:33.326Z,65.40
2018-06-03T23:58:02.889Z,65.43
